createdAt,value
2024-02-13T00:06:18.271Z,98555.93
2024-02-13T00:16:24.350Z,98562.48
2024-02-13T00:26:30.419Z,98573.73
2024-02-13T00:36:36.376Z,98590.05
2024-02-13T00:46:42.583Z,98602.27
2024-02-13T00:56:49.102Z,98618.46
2024-02-13T01:06:55.490Z,98635.06
2024-02-13T01:17:02.212Z,98642.40
2024-02-13T01:27:08.743Z,98650.18
2024-02-13T01:37:14.816Z,98660.33
2024-02-13T01:47:23.146Z,98673.53
2024-02-13T01:57:31.139Z,98676.08
2024-02-13T02:07:38.916Z,98686.13
2024-02-13T02:17:52.741Z,98700.43
2024-02-13T02:27:59.511Z,98715.60
2024-02-13T02:38:06.416Z,98719.88
2024-02-13T02:48:16.232Z,98738.82
2024-02-13T02:58:25.409Z,98756.02
2024-02-13T03:08:35.132Z,98760.88
2024-02-13T03:18:41.303Z,98765.27
2024-02-13T03:28:47.556Z,98775.55
2024-02-13T03:38:54.872Z,98788.74
2024-02-13T03:49:01.074Z,98808.40
2024-02-13T03:59:07.030Z,98827.02
2024-02-13T04:09:13.184Z,98840.50
2024-02-13T04:19:19.449Z,98848.29
2024-02-13T04:29:25.422Z,98857.24
2024-02-13T04:39:31.879Z,98858.98
2024-02-13T04:49:38.176Z,98866.50
2024-02-13T04:59:50.360Z,98879.82
2024-02-13T05:09:59.372Z,98889.96
2024-02-13T05:20:12.868Z,98900.35
2024-02-13T05:30:19.732Z,98910.86
2024-02-13T05:40:26.267Z,98920.94
2024-02-13T05:50:32.459Z,98943.33
2024-02-13T06:00:38.951Z,98960.54
2024-02-13T06:10:45.534Z,98973.67
2024-02-13T06:20:51.807Z,98993.32
2024-02-13T06:31:01.150Z,99010.79
2024-02-13T06:41:07.603Z,99030.35
2024-02-13T06:51:15.510Z,99050.15
2024-02-13T07:01:27.124Z,99066.16
2024-02-13T07:11:33.364Z,99087.70
2024-02-13T07:21:39.530Z,99098.68
2024-02-13T07:31:45.619Z,99111.76
2024-02-13T07:41:52.301Z,99120.56
2024-02-13T07:52:01.144Z,99129.38
2024-02-13T08:02:07.553Z,99142.33
2024-02-13T08:12:14.180Z,99159.04
2024-02-13T08:22:20.524Z,99167.93
2024-02-13T08:32:28.357Z,99175.45
2024-02-13T08:42:36.212Z,99175.11
2024-02-13T08:52:44.470Z,99186.77
2024-02-13T09:02:50.847Z,99195.21
2024-02-13T09:12:57.307Z,99203.56
2024-02-13T09:23:03.686Z,99216.33
2024-02-13T09:33:11.092Z,99222.94
2024-02-13T09:43:20.342Z,99231.38
2024-02-13T09:53:28.656Z,99246.45
2024-02-13T10:03:34.959Z,99269.08
2024-02-13T10:13:46.697Z,99292.59
2024-02-13T10:23:55.871Z,99303.22
2024-02-13T10:34:05.007Z,99309.11
2024-02-13T10:44:13.210Z,99312.98
2024-02-13T10:54:19.408Z,99328.23
2024-02-13T11:04:28.066Z,99335.52
2024-02-13T11:14:34.723Z,99343.68
2024-02-13T11:24:52.745Z,99353.59
2024-02-13T11:35:01.161Z,99360.40
2024-02-13T11:45:09.516Z,99369.85
2024-02-13T11:55:16.396Z,99385.39
2024-02-13T12:05:26.369Z,99385.87
2024-02-13T12:15:32.855Z,99398.58
2024-02-13T12:25:39.151Z,99400.22
2024-02-13T12:35:48.213Z,99412.41
2024-02-13T12:45:56.653Z,99413.59
2024-02-13T12:56:04.280Z,99420.65
2024-02-13T13:06:13.133Z,99426.56
2024-02-13T13:16:20.370Z,99440.68
2024-02-13T13:26:35.742Z,99452.48
2024-02-13T13:36:42.399Z,99465.96
2024-02-13T13:46:52.245Z,99475.08
2024-02-13T13:56:58.590Z,99481.11
2024-02-13T14:07:07.051Z,99493.56
2024-02-13T14:17:13.076Z,99502.87
2024-02-13T14:27:20.234Z,99517.54
2024-02-13T14:37:26.985Z,99526.19
2024-02-13T14:47:35.342Z,99536.79
2024-02-13T14:57:47.141Z,99545.39
2024-02-13T15:08:04.989Z,99554.52
2024-02-13T15:18:12.218Z,99564.88
2024-02-13T15:28:18.598Z,99580.31
2024-02-13T15:38:41.984Z,99589.66
2024-02-13T15:48:48.203Z,99602.69
2024-02-13T15:58:54.531Z,99617.52
2024-02-13T16:09:00.853Z,99626.91
2024-02-13T16:19:09.711Z,99642.15
2024-02-13T16:29:15.781Z,99651.83
2024-02-13T16:39:24.018Z,99665.02
2024-02-13T16:49:30.130Z,99677.78
2024-02-13T16:59:35.952Z,99685.31
2024-02-13T17:09:42.449Z,99699.13
2024-02-13T17:19:48.840Z,99713.46
2024-02-13T17:29:55.086Z,99724.50
2024-02-13T17:40:01.855Z,99720.11
2024-02-13T17:50:10.015Z,99726.70
2024-02-13T18:00:23.073Z,99729.03
2024-02-13T18:10:29.292Z,99729.86
2024-02-13T18:20:35.797Z,99731.74
2024-02-13T18:30:42.131Z,99738.34
2024-02-13T18:40:49.916Z,99744.65
2024-02-13T18:50:56.253Z,99750.02
2024-02-13T19:01:02.262Z,99759.65
2024-02-13T19:11:08.823Z,99766.39
2024-02-13T19:21:15.140Z,99776.20
2024-02-13T19:31:25.007Z,99785.11
2024-02-13T19:41:32.272Z,99795.06
2024-02-13T19:51:39.570Z,99806.58
2024-02-13T20:01:45.561Z,99812.13
2024-02-13T20:11:51.663Z,99814.31
2024-02-13T20:21:57.474Z,99817.80
2024-02-13T20:32:04.946Z,99830.84
2024-02-13T20:42:11.950Z,99832.15
2024-02-13T20:52:16.471Z,99833.81
2024-02-13T21:02:22.513Z,99839.96
2024-02-13T21:12:29.322Z,99848.16
2024-02-13T21:22:49.173Z,99859.02
2024-02-13T21:32:54.962Z,99860.35
2024-02-13T21:43:01.635Z,99866.38
2024-02-13T21:53:07.840Z,99868.02
2024-02-13T22:03:14.143Z,99870.15
2024-02-13T22:13:22.340Z,99876.88
2024-02-13T22:23:30.985Z,99886.73
2024-02-13T22:33:37.179Z,99889.62
2024-02-13T22:43:43.530Z,99890.08
2024-02-13T22:53:49.569Z,99905.68
2024-02-13T23:03:55.794Z,99914.30
2024-02-13T23:14:02.461Z,99914.31
2024-02-13T23:24:09.583Z,99920.19
2024-02-13T23:34:16.381Z,99922.13
2024-02-13T23:44:24.466Z,99921.28
2024-02-13T23:54:30.527Z,99927.89
